Hlavní strana
METAR-TAF:

METAR-TAF

Letiště :

Tozeur, Tunisko

zeměpisná šířka: 33-55N, zeměpisná délka: 008-06E, výška: 87 m

Aktuální stav počasí

Zpráva byla vytvořena před 56 minutami, v 15:00 UTC
Východní vítr 14 kt
Teplota 21°C
Vlhkost vzduchu 35%
Tlak 1021 hPa
Viditelnost: 7000 m

METAR: DTTZ 281500Z 08014KT 7000 NSC 21/05 Q1021

Čas: 16:56 (15:56 UTC)

Předpověď počasí

Zpráva byla vytvořena před 4 hodinami a 56 minutami, v 11:00 UTC
Předpověď platná od 28 v 12 UTC do 01 v 12 UTC
Východní vítr 17 kt
Viditelnost: 7000 m

TAF: DTTZ 281100Z 2812/0112 08017KT 7000 NSC

Stav a předpovědi počasí z více než 4 000 letišť (zprávy METAR a TAF).

Červené a žluté tečky na mapě představují dostupné meteorologické stanice.

Když kurzor umístíte na tečku, zobrazí se název stanice.

Pak kliknutím zobrazíte stav a předpověď počasí.

Chcete-li změnit mapu, kliknutím na zelené tlačítko se znaménkem +mapu přiblížíte, kliknutím na zelené tlačítko se znaménkem – mapu oddálíte a kliknutím na zelené šipky přejdete na sousední mapy.


METAR-TAF: